^^

..:: Storico WU ::..




Lo storico viene creato da WUnderground con i dati che la stazione Meteomincio invia al loro server. L' aggiornamento viene fatto ogni 5 minuti circa, tuttavia possono esserci intervalli pił ampi a causa di errori, interruzioni di servizio o problemi nell' invio tramite FTP.


Storico stazione MeteoMincio
Giorno Sommario per Agosto 20, 2022 Unità:  Inglese    Metrico   Entrambi
Giorno Settimana Mese Anno
  Max: Min: Media:
Temperatura: 89.6 °F 64.4 °F 76.3 °F
Dew Point: 69.8 °F 62.6 °F 66.4 °F
Umidità: 94% 42% 74%
Velocità vento: 9.9mph 0mph 3.7mph
Raffica: 11.8mph - -
Direzione- - WSW
Pressione: 29.9 in 29.8 in -
Precipitazioni: 0 in    
 
 
Tabulato Dati per Agosto 20, 2022
Ora Temperatura Dew Point Pressione Direzione Velocità vento Raffica Umidità Intensità pioggia (oraria) Info solare Situazione
00:04 69.8 °F 66.2 °F 29.8 in NW 1.2 mph 3.1 mph 90% 0 in 0.00 W/m2 unknown
00:09 69.8 °F 66.2 °F 29.8 in WNW 1.2 mph 2.5 mph 90% 0 in 0.00 W/m2 unknown
00:14 68 °F 66.2 °F 29.8 in NW 0.6 mph 1.2 mph 91% 0 in 0.00 W/m2 unknown
00:19 68 °F 66.2 °F 29.8 in Calm     92% 0 in 0.00 W/m2 unknown
00:24 68 °F 66.2 °F 29.9 in NW 0.6 mph 1.2 mph 92% 0 in 0.00 W/m2 unknown
00:28 68 °F 66.2 °F 29.9 in NW 0.6 mph 1.2 mph 92% 0 in 0.00 W/m2 unknown
00:34 68 °F 66.2 °F 29.9 in Calm   1.2 mph 92% 0 in 0.00 W/m2 unknown
00:39 68 °F 66.2 °F 29.9 in Calm     92% 0 in 0.00 W/m2 unknown
00:44 68 °F 64.4 °F 29.9 in Calm     92% 0 in 0.00 W/m2 unknown
00:49 68 °F 64.4 °F 29.9 in Calm     92% 0 in 0.00 W/m2 unknown
00:54 68 °F 64.4 °F 29.9 in Calm   1.2 mph 93% 0 in 0.00 W/m2 unknown
00:59 68 °F 64.4 °F 29.9 in West 1.9 mph 2.5 mph 93% 0 in 0.00 W/m2 unknown
01:04 66.2 °F 64.4 °F 29.9 in WSW 3.1 mph 3.7 mph 93% 0 in 0.00 W/m2 unknown
01:09 66.2 °F 64.4 °F 29.9 in WSW 2.5 mph 3.7 mph 93% 0 in 0.00 W/m2 unknown
01:14 66.2 °F 64.4 °F 29.9 in WSW 1.2 mph 3.1 mph 93% 0 in 0.00 W/m2 unknown
01:19 66.2 °F 64.4 °F 29.9 in WSW 0.6 mph 1.2 mph 93% 0 in 0.00 W/m2 unknown
01:24 66.2 °F 64.4 °F 29.9 in WSW 1.2 mph 1.2 mph 93% 0 in 0.00 W/m2 unknown
01:29 66.2 °F 64.4 °F 29.8 in WSW 0.6 mph 2.5 mph 93% 0 in 0.00 W/m2 unknown
01:34 66.2 °F 64.4 °F 29.9 in WSW 1.2 mph 1.9 mph 93% 0 in 0.00 W/m2 unknown
01:39 66.2 °F 64.4 °F 29.9 in South 1.9 mph 3.7 mph 94% 0 in 0.00 W/m2 unknown
01:44 66.2 °F 64.4 °F 29.9 in South 1.9 mph 3.7 mph 94% 0 in 0.00 W/m2 unknown
01:49 66.2 °F 64.4 °F 29.9 in SSW 1.2 mph 3.1 mph 94% 0 in 0.00 W/m2 unknown
01:54 66.2 °F 64.4 °F 29.9 in WSW 2.5 mph 3.7 mph 94% 0 in 0.00 W/m2 unknown
01:59 66.2 °F 64.4 °F 29.9 in West 1.9 mph 3.7 mph 93% 0 in 0.00 W/m2 unknown
02:04 66.2 °F 64.4 °F 29.8 in WSW 2.5 mph 3.7 mph 94% 0 in 0.00 W/m2 unknown
02:09 66.2 °F 64.4 °F 29.8 in WSW 2.5 mph 3.7 mph 94% 0 in 0.00 W/m2 unknown
02:14 66.2 °F 64.4 °F 29.8 in WSW 3.1 mph 3.7 mph 93% 0 in 0.00 W/m2 unknown
02:19 66.2 °F 64.4 °F 29.8 in West 3.1 mph 3.7 mph 93% 0 in 0.00 W/m2 unknown
02:24 66.2 °F 64.4 °F 29.8 in WSW 2.5 mph 3.7 mph 93% 0 in 0.00 W/m2 unknown
02:29 66.2 °F 64.4 °F 29.9 in SW 3.1 mph 3.7 mph 93% 0 in 0.00 W/m2 unknown
02:34 66.2 °F 64.4 °F 29.9 in SW 1.9 mph 3.1 mph 93% 0 in 0.00 W/m2 unknown
02:39 66.2 °F 64.4 °F 29.9 in SW 0.6 mph 1.9 mph 93% 0 in 0.00 W/m2 unknown
02:44 66.2 °F 64.4 °F 29.9 in WSW 2.5 mph 3.7 mph 93% 0 in 0.00 W/m2 unknown
02:49 66.2 °F 62.6 °F 29.9 in WSW 3.1 mph 3.7 mph 93% 0 in 0.00 W/m2 unknown
02:54 66.2 °F 62.6 °F 29.9 in WSW 3.1 mph 3.7 mph 93% 0 in 0.00 W/m2 unknown
02:59 66.2 °F 62.6 °F 29.9 in WSW 3.1 mph 3.7 mph 93% 0 in 0.00 W/m2 unknown
03:04 66.2 °F 62.6 °F 29.9 in West 3.1 mph 3.7 mph 93% 0 in 0.00 W/m2 unknown
03:09 66.2 °F 62.6 °F 29.9 in West 2.5 mph 3.7 mph 93% 0 in 0.00 W/m2 unknown
03:14 66.2 °F 62.6 °F 29.9 in West 1.9 mph 3.7 mph 93% 0 in 0.00 W/m2 unknown
03:19 66.2 °F 64.4 °F 29.9 in West 1.2 mph 3.1 mph 93% 0 in 0.00 W/m2 unknown
03:24 66.2 °F 62.6 °F 29.9 in Calm   1.9 mph 93% 0 in 0.00 W/m2 unknown
03:29 66.2 °F 62.6 °F 29.9 in Calm     93% 0 in 0.00 W/m2 unknown
03:34 66.2 °F 62.6 °F 29.8 in Calm     93% 0 in 0.00 W/m2 unknown
03:39 66.2 °F 62.6 °F 29.8 in Calm     93% 0 in 0.00 W/m2 unknown
03:44 64.4 °F 62.6 °F 29.8 in Calm     93% 0 in 0.00 W/m2 unknown
03:49 64.4 °F 62.6 °F 29.8 in WSW 3.1 mph 3.7 mph 93% 0 in 0.00 W/m2 unknown
03:54 64.4 °F 62.6 °F 29.9 in WSW 4.3 mph 5 mph 94% 0 in 0.00 W/m2 unknown
03:59 64.4 °F 62.6 °F 29.9 in WSW 5 mph 6.2 mph 94% 0 in 0.00 W/m2 unknown
04:04 64.4 °F 62.6 °F 29.9 in West 5 mph 6.2 mph 94% 0 in 0.00 W/m2 unknown
04:09 64.4 °F 62.6 °F 29.9 in West 5 mph 6.2 mph 94% 0 in 0.00 W/m2 unknown
04:14 64.4 °F 62.6 °F 29.8 in WSW 3.7 mph 5 mph 94% 0 in 0.00 W/m2 unknown
04:19 64.4 °F 62.6 °F 29.8 in WSW 3.7 mph 5 mph 94% 0 in 0.00 W/m2 unknown
04:24 64.4 °F 62.6 °F 29.8 in WSW 3.7 mph 3.7 mph 94% 0 in 0.00 W/m2 unknown
04:29 64.4 °F 62.6 °F 29.8 in WSW 3.7 mph 5 mph 94% 0 in 0.00 W/m2 unknown
04:34 64.4 °F 62.6 °F 29.8 in WSW 4.3 mph 5 mph 94% 0 in 0.00 W/m2 unknown
04:39 64.4 °F 62.6 °F 29.8 in West 4.3 mph 5 mph 94% 0 in 0.00 W/m2 unknown
04:44 64.4 °F 62.6 °F 29.8 in West 3.7 mph 5 mph 94% 0 in 0.00 W/m2 unknown
04:49 64.4 °F 62.6 °F 29.8 in WNW 3.1 mph 5 mph 94% 0 in 0.00 W/m2 unknown
04:54 64.4 °F 62.6 °F 29.8 in West 1.9 mph 3.7 mph 93% 0 in 0.00 W/m2 unknown
04:59 64.4 °F 62.6 °F 29.8 in SW 3.1 mph 3.7 mph 93% 0 in 0.00 W/m2 unknown
05:04 64.4 °F 62.6 °F 29.8 in SW 3.1 mph 3.7 mph 93% 0 in 0.00 W/m2 unknown
05:09 64.4 °F 62.6 °F 29.8 in SW 3.1 mph 3.7 mph 93% 0 in 0.00 W/m2 unknown
05:14 64.4 °F 62.6 °F 29.8 in WSW 3.1 mph 3.7 mph 93% 0 in 0.00 W/m2 unknown
05:19 64.4 °F 62.6 °F 29.8 in West 3.1 mph 3.7 mph 93% 0 in 0.00 W/m2 unknown
05:24 64.4 °F 62.6 °F 29.8 in West 3.1 mph 5 mph 93% 0 in 0.00 W/m2 unknown
05:29 64.4 °F 62.6 °F 29.8 in West 4.3 mph 5 mph 93% 0 in 0.00 W/m2 unknown
05:34 64.4 °F 62.6 °F 29.8 in WSW 5 mph 6.2 mph 93% 0 in 0.00 W/m2 unknown
05:39 64.4 °F 62.6 °F 29.8 in WSW 5 mph 6.2 mph 93% 0 in 0.00 W/m2 unknown
05:44 64.4 °F 62.6 °F 29.8 in WSW 3.1 mph 6.2 mph 93% 0 in 0.00 W/m2 unknown
05:49 64.4 °F 62.6 °F 29.8 in West 2.5 mph 3.7 mph 93% 0 in 0.00 W/m2 unknown
05:54 64.4 °F 62.6 °F 29.8 in West 3.7 mph 5 mph 93% 0 in 0.00 W/m2 unknown
05:59 64.4 °F 62.6 °F 29.8 in West 4.3 mph 5 mph 93% 0 in 0.00 W/m2 unknown
06:04 66.2 °F 62.6 °F 29.8 in WNW 3.7 mph 6.2 mph 93% 0 in 0.00 W/m2 unknown
06:09 66.2 °F 62.6 °F 29.8 in WNW 5 mph 6.2 mph 93% 0 in 0.00 W/m2 unknown
06:14 66.2 °F 62.6 °F 29.8 in West 3.7 mph 6.2 mph 93% 0 in 0.00 W/m2 unknown
06:19 66.2 °F 62.6 °F 29.8 in West 3.7 mph 5 mph 93% 0 in 0.00 W/m2 unknown
06:24 66.2 °F 62.6 °F 29.8 in WNW 4.3 mph 5.6 mph 93% 0 in 0.00 W/m2 unknown
06:29 66.2 °F 62.6 °F 29.8 in WNW 5 mph 6.2 mph 93% 0 in 0.00 W/m2 unknown
06:34 66.2 °F 62.6 °F 29.8 in WNW 3.7 mph 6.2 mph 93% 0 in 5.00 W/m2 unknown
06:39 64.4 °F 62.6 °F 29.8 in WNW 3.7 mph 6.2 mph 93% 0 in 5.00 W/m2 unknown
06:44 64.4 °F 62.6 °F 29.8 in West 3.1 mph 6.2 mph 93% 0 in 9.00 W/m2 unknown
06:49 64.4 °F 62.6 °F 29.8 in West 2.5 mph 5 mph 93% 0 in 9.00 W/m2 unknown
06:54 64.4 °F 62.6 °F 29.8 in West 3.1 mph 3.7 mph 93% 0 in 11.00 W/m2 unknown
06:59 64.4 °F 62.6 °F 29.8 in WSW 3.7 mph 5 mph 93% 0 in 11.00 W/m2 unknown
07:04 64.4 °F 62.6 °F 29.8 in WSW 3.7 mph 5 mph 93% 0 in 11.00 W/m2 unknown
07:09 64.4 °F 62.6 °F 29.8 in WSW 3.7 mph 5 mph 93% 0 in 12.00 W/m2 unknown
07:14 64.4 °F 62.6 °F 29.8 in WSW 3.7 mph 5 mph 94% 0 in 14.00 W/m2 unknown
07:19 64.4 °F 62.6 °F 29.8 in WSW 3.1 mph 5 mph 94% 0 in 39.00 W/m2 unknown
07:24 64.4 °F 62.6 °F 29.8 in WSW 3.7 mph 6.2 mph 94% 0 in 56.00 W/m2 unknown
07:29 66.2 °F 64.4 °F 29.8 in WSW 4.3 mph 6.2 mph 94% 0 in 65.00 W/m2 unknown
07:34 66.2 °F 64.4 °F 29.8 in WSW 3.7 mph 6.2 mph 94% 0 in 79.00 W/m2 unknown
07:39 66.2 °F 64.4 °F 29.8 in WSW 3.1 mph 6.2 mph 93% 0 in 91.00 W/m2 unknown
07:44 66.2 °F 64.4 °F 29.9 in West 3.1 mph 3.7 mph 93% 0 in 105.00 W/m2 unknown
07:49 66.2 °F 64.4 °F 29.9 in WNW 1.9 mph 3.1 mph 93% 0 in 120.00 W/m2 unknown
07:54 68 °F 64.4 °F 29.9 in West 3.1 mph 5 mph 93% 0 in 132.00 W/m2 unknown
07:59 68 °F 64.4 °F 29.9 in West 4.3 mph 5 mph 92% 0 in 146.00 W/m2 unknown
08:04 68 °F 66.2 °F 29.9 in WNW 3.1 mph 5 mph 92% 0 in 160.00 W/m2 unknown
08:09 68 °F 66.2 °F 29.9 in WNW 4.3 mph 5 mph 92% 0 in 176.00 W/m2 unknown
08:14 68 °F 66.2 °F 29.9 in West 4.3 mph 5 mph 91% 0 in 192.00 W/m2 unknown
08:19 68 °F 66.2 °F 29.9 in West 4.3 mph 5 mph 91% 0 in 206.00 W/m2 unknown
08:24 69.8 °F 66.2 °F 29.9 in WSW 3.7 mph 6.2 mph 90% 0 in 223.00 W/m2 unknown
08:29 69.8 °F 66.2 °F 29.9 in WSW 6.2 mph 8.1 mph 90% 0 in 239.00 W/m2 unknown
08:34 69.8 °F 66.2 °F 29.9 in West 6.2 mph 8.1 mph 90% 0 in 251.00 W/m2 unknown
08:39 69.8 °F 66.2 °F 29.9 in West 5.6 mph 8.1 mph 89% 0 in 267.00 W/m2 unknown
08:44 69.8 °F 68 °F 29.9 in West 6.8 mph 8.1 mph 89% 0 in 279.00 W/m2 unknown
08:49 71.6 °F 68 °F 29.9 in West 6.8 mph 8.1 mph 89% 0 in 294.00 W/m2 unknown
08:54 71.6 °F 68 °F 29.9 in West 5.6 mph 8.1 mph 88% 0 in 309.00 W/m2 unknown
08:59 71.6 °F 68 °F 29.9 in West 8.1 mph 10.6 mph 87% 0 in 322.00 W/m2 unknown
09:04 71.6 °F 68 °F 29.9 in WNW 7.5 mph 11.8 mph 87% 0 in 336.00 W/m2 unknown
09:09 71.6 °F 68 °F 29.9 in West 6.8 mph 11.8 mph 86% 0 in 350.00 W/m2 unknown
09:14 71.6 °F 68 °F 29.9 in West 6.8 mph 9.3 mph 86% 0 in 366.00 W/m2 unknown
09:19 73.4 °F 68 °F 29.9 in West 6.8 mph 9.3 mph 85% 0 in 380.00 W/m2 unknown
09:24 73.4 °F 68 °F 29.9 in WNW 7.5 mph 8.7 mph 85% 0 in 394.00 W/m2 unknown
09:29 73.4 °F 68 °F 29.9 in WNW 8.1 mph 9.3 mph 83% 0 in 410.00 W/m2 unknown
09:34 75.2 °F 68 °F 29.9 in WNW 7.5 mph 9.3 mph 82% 0 in 420.00 W/m2 unknown
09:39 75.2 °F 69.8 °F 29.9 in WNW 7.5 mph 9.3 mph 81% 0 in 438.00 W/m2 unknown
09:44 75.2 °F 68 °F 29.9 in West 7.5 mph 9.3 mph 80% 0 in 448.00 W/m2 unknown
09:49 75.2 °F 68 °F 29.9 in WNW 8.7 mph 10.6 mph 79% 0 in 464.00 W/m2 unknown
09:54 77 °F 68 °F 29.9 in WNW 6.2 mph 9.9 mph 78% 0 in 480.00 W/m2 unknown
09:59 77 °F 69.8 °F 29.9 in WNW 8.1 mph 10.6 mph 78% 0 in 490.00 W/m2 unknown
10:04 77 °F 69.8 °F 29.9 in West 8.7 mph 11.2 mph 78% 0 in 503.00 W/m2 unknown
10:09 77 °F 69.8 °F 29.9 in West 8.1 mph 11.8 mph 78% 0 in 517.00 W/m2 unknown
10:14 77 °F 69.8 °F 29.9 in West 8.7 mph 11.8 mph 76% 0 in 527.00 W/m2 unknown
10:19 78.8 °F 69.8 °F 29.9 in West 9.3 mph 11.8 mph 74% 0 in 543.00 W/m2 unknown
10:24 78.8 °F 68 °F 29.9 in WNW 9.3 mph 11.8 mph 73% 0 in 554.00 W/m2 unknown
10:29 78.8 °F 69.8 °F 29.9 in WNW 9.9 mph 11.8 mph 73% 0 in 568.00 W/m2 unknown
10:34 78.8 °F 69.8 °F 29.9 in West 8.7 mph 11.8 mph 72% 0 in 613.00 W/m2 unknown
10:39 78.8 °F 68 °F 29.9 in West 8.7 mph 11.8 mph 71% 0 in 652.00 W/m2 unknown
10:44 78.8 °F 69.8 °F 29.9 in West 6.2 mph 11.8 mph 72% 0 in 664.00 W/m2 unknown
10:49 78.8 °F 69.8 °F 29.9 in West 7.5 mph 11.2 mph 71% 0 in 643.00 W/m2 unknown
10:54 78.8 °F 69.8 °F 29.9 in West 8.1 mph 11.8 mph 72% 0 in 548.00 W/m2 unknown
10:59 78.8 °F 68 °F 29.9 in WNW 6.8 mph 11.8 mph 71% 0 in 279.00 W/m2 unknown
11:04 78.8 °F 69.8 °F 29.9 in West 6.2 mph 9.3 mph 70% 0 in 689.00 W/m2 unknown
11:09 80.6 °F 69.8 °F 29.9 in WNW 8.1 mph 10.6 mph 69% 0 in 703.00 W/m2 unknown
11:14 80.6 °F 69.8 °F 29.9 in WNW 8.1 mph 10.6 mph 68% 0 in 684.00 W/m2 unknown
11:19 80.6 °F 68 °F 29.9 in WNW 8.7 mph 10.6 mph 66% 0 in 679.00 W/m2 unknown
11:24 80.6 °F 69.8 °F 29.9 in WNW 8.1 mph 10.6 mph 67% 0 in 686.00 W/m2 unknown
11:29 82.4 °F 69.8 °F 29.9 in WNW 7.5 mph 9.9 mph 66% 0 in 693.00 W/m2 unknown
11:34 82.4 °F 69.8 °F 29.9 in WNW 7.5 mph 10.6 mph 68% 0 in 700.00 W/m2 unknown
11:39 82.4 °F 69.8 °F 29.9 in West 7.5 mph 9.9 mph 67% 0 in 707.00 W/m2 unknown
11:44 82.4 °F 69.8 °F 29.9 in West 6.8 mph 8.7 mph 66% 0 in 640.00 W/m2 unknown
11:49 82.4 °F 69.8 °F 29.9 in West 7.5 mph 9.3 mph 65% 0 in 533.00 W/m2 unknown
11:54 82.4 °F 69.8 °F 29.9 in West 8.7 mph 11.8 mph 65% 0 in 714.00 W/m2 unknown
11:59 82.4 °F 69.8 °F 29.9 in WNW 5.6 mph 11.8 mph 65% 0 in 738.00 W/m2 unknown
12:04 84.2 °F 69.8 °F 29.9 in NW 5 mph 6.8 mph 64% 0 in 747.00 W/m2 unknown
12:09 84.2 °F 69.8 °F 29.9 in WNW 7.5 mph 8.7 mph 61% 0 in 754.00 W/m2 unknown
12:14 84.2 °F 68 °F 29.9 in WNW 6.8 mph 9.3 mph 58% 0 in 761.00 W/m2 unknown
12:19 84.2 °F 68 °F 29.9 in NW 6.2 mph 8.7 mph 59% 0 in 770.00 W/m2 unknown
12:24 84.2 °F 68 °F 29.9 in WNW 6.8 mph 10.6 mph 57% 0 in 773.00 W/m2 unknown
12:29 84.2 °F 68 °F 29.9 in WNW 5 mph 9.9 mph 58% 0 in 777.00 W/m2 unknown
12:34 86 °F 68 °F 29.9 in NW 5.6 mph 6.8 mph 58% 0 in 780.00 W/m2 unknown
12:39 86 °F 69.8 °F 29.9 in WNW 5 mph 6.8 mph 58% 0 in 786.00 W/m2 unknown
12:44 86 °F 68 °F 29.9 in WNW 3.1 mph 6.2 mph 56% 0 in 791.00 W/m2 unknown
12:49 86 °F 69.8 °F 29.9 in NW 7.5 mph 10.6 mph 58% 0 in 793.00 W/m2 unknown
12:54 86 °F 68 °F 29.9 in NW 6.2 mph 9.9 mph 57% 0 in 796.00 W/m2 unknown
12:59 86 °F 69.8 °F 29.9 in West 5 mph 8.1 mph 59% 0 in 802.00 W/m2 unknown
13:04 86 °F 69.8 °F 29.9 in West 6.2 mph 8.1 mph 60% 0 in 803.00 W/m2 unknown
13:09 86 °F 69.8 °F 29.9 in SW 6.2 mph 8.1 mph 58% 0 in 803.00 W/m2 unknown
13:14 86 °F 69.8 °F 29.9 in WSW 3.7 mph 6.8 mph 60% 0 in 807.00 W/m2 unknown
13:19 86 °F 69.8 °F 29.8 in West 6.8 mph 9.3 mph 59% 0 in 807.00 W/m2 unknown
13:24 86 °F 69.8 °F 29.8 in WSW 5 mph 8.7 mph 59% 0 in 809.00 W/m2 unknown
13:29 86 °F 69.8 °F 29.8 in West 5.6 mph 8.1 mph 57% 0 in 807.00 W/m2 unknown
13:34 86 °F 69.8 °F 29.8 in West 6.2 mph 8.1 mph 58% 0 in 812.00 W/m2 unknown
13:39 87.8 °F 69.8 °F 29.8 in West 6.2 mph 9.9 mph 58% 0 in 810.00 W/m2 unknown
13:44 87.8 °F 69.8 °F 29.8 in West 6.2 mph 10.6 mph 58% 0 in 810.00 W/m2 unknown
13:49 86 °F 69.8 °F 29.8 in West 6.8 mph 9.9 mph 58% 0 in 805.00 W/m2 unknown
13:54 86 °F 69.8 °F 29.8 in West 6.2 mph 8.7 mph 57% 0 in 805.00 W/m2 unknown
13:59 87.8 °F 69.8 °F 29.8 in West 7.5 mph 10.6 mph 57% 0 in 802.00 W/m2 unknown
14:04 86 °F 69.8 °F 29.8 in West 5 mph 6.8 mph 57% 0 in 803.00 W/m2 unknown
14:09 87.8 °F 69.8 °F 29.8 in WNW 6.2 mph 8.1 mph 57% 0 in 805.00 W/m2 unknown
14:14 87.8 °F 69.8 °F 29.8 in West 6.2 mph 8.1 mph 57% 0 in 796.00 W/m2 unknown
14:19 87.8 °F 69.8 °F 29.8 in SW 6.8 mph 10.6 mph 58% 0 in 796.00 W/m2 unknown
14:24 87.8 °F 69.8 °F 29.8 in WSW 6.2 mph 9.9 mph 56% 0 in 796.00 W/m2 unknown
14:29 87.8 °F 69.8 °F 29.8 in WSW 6.8 mph 8.1 mph 56% 0 in 793.00 W/m2 unknown
14:34 87.8 °F 69.8 °F 29.8 in West 7.5 mph 10.6 mph 56% 0 in 789.00 W/m2 unknown
14:39 87.8 °F 68 °F 29.8 in West 6.8 mph 9.9 mph 54% 0 in 784.00 W/m2 unknown
14:44 87.8 °F 69.8 °F 29.8 in WNW 4.3 mph 8.1 mph 54% 0 in 779.00 W/m2 unknown
14:49 87.8 °F 68 °F 29.8 in West 5.6 mph 6.8 mph 53% 0 in 773.00 W/m2 unknown
14:54 87.8 °F 68 °F 29.8 in West 5 mph 6.8 mph 53% 0 in 773.00 W/m2 unknown
14:59 87.8 °F 68 °F 29.8 in WNW 5 mph 6.8 mph 53% 0 in 766.00 W/m2 unknown
15:04 87.8 °F 68 °F 29.8 in West 5 mph 6.8 mph 51% 0 in 756.00 W/m2 unknown
15:09 87.8 °F 68 °F 29.8 in West 4.3 mph 6.2 mph 52% 0 in 752.00 W/m2 unknown
15:14 87.8 °F 68 °F 29.8 in WSW 3.1 mph 6.2 mph 53% 0 in 747.00 W/m2 unknown
15:19 87.8 °F 68 °F 29.8 in West 5.6 mph 6.8 mph 52% 0 in 740.00 W/m2 unknown
15:24 87.8 °F 69.8 °F 29.8 in SW 5 mph 9.3 mph 53% 0 in 733.00 W/m2 unknown
15:29 87.8 °F 68 °F 29.8 in SSW 5.6 mph 9.3 mph 51% 0 in 729.00 W/m2 unknown
15:34 87.8 °F 68 °F 29.8 in SSW 5.6 mph 8.7 mph 50% 0 in 724.00 W/m2 unknown
15:39 87.8 °F 66.2 °F 29.8 in SSW 5 mph 6.8 mph 49% 0 in 715.00 W/m2 unknown
15:44 87.8 °F 66.2 °F 29.8 in WSW 5 mph 6.8 mph 49% 0 in 707.00 W/m2 unknown
15:49 89.6 °F 66.2 °F 29.8 in WSW 5 mph 6.2 mph 48% 0 in 696.00 W/m2 unknown
15:54 89.6 °F 66.2 °F 29.8 in WSW 5 mph 6.2 mph 47% 0 in 687.00 W/m2 unknown
15:59 87.8 °F 66.2 °F 29.8 in WSW 3.1 mph 6.2 mph 48% 0 in 679.00 W/m2 unknown
16:04 87.8 °F 66.2 °F 29.8 in South 5 mph 6.2 mph 48% 0 in 670.00 W/m2 unknown
16:09 89.6 °F 64.4 °F 29.8 in SW 5 mph 6.2 mph 46% 0 in 663.00 W/m2 unknown
16:14 89.6 °F 66.2 °F 29.8 in WSW 3.7 mph 6.2 mph 48% 0 in 650.00 W/m2 unknown
16:19 89.6 °F 66.2 °F 29.8 in SW 3.1 mph 5 mph 47% 0 in 638.00 W/m2 unknown
16:24 89.6 °F 66.2 °F 29.8 in NW 2.5 mph 3.7 mph 47% 0 in 626.00 W/m2 unknown
16:29 89.6 °F 66.2 °F 29.8 in SW 5 mph 6.8 mph 46% 0 in 617.00 W/m2 unknown
16:34 89.6 °F 66.2 °F 29.8 in WSW 4.3 mph 6.8 mph 46% 0 in 608.00 W/m2 unknown
16:39 87.8 °F 66.2 °F 29.8 in WSW 4.3 mph 6.2 mph 49% 0 in 594.00 W/m2 unknown
16:44 89.6 °F 64.4 °F 29.8 in WSW 4.3 mph 6.2 mph 46% 0 in 584.00 W/m2 unknown
16:49 89.6 °F 64.4 °F 29.8 in WSW 3.7 mph 6.2 mph 45% 0 in 573.00 W/m2 unknown
16:54 89.6 °F 64.4 °F 29.8 in WSW 3.7 mph 6.2 mph 45% 0 in 561.00 W/m2 unknown
16:59 89.6 °F 64.4 °F 29.8 in SW 4.3 mph 6.2 mph 43% 0 in 547.00 W/m2 unknown
17:04 89.6 °F 64.4 °F 29.8 in WSW 4.3 mph 6.2 mph 43% 0 in 533.00 W/m2 unknown
17:09 89.6 °F 62.6 °F 29.8 in West 3.7 mph 6.2 mph 43% 0 in 522.00 W/m2 unknown
17:14 89.6 °F 62.6 °F 29.8 in SW 3.7 mph 5 mph 42% 0 in 510.00 W/m2 unknown
17:19 89.6 °F 64.4 °F 29.8 in WSW 3.7 mph 5 mph 42% 0 in 494.00 W/m2 unknown
17:24 89.6 °F 64.4 °F 29.8 in WSW 3.7 mph 5 mph 44% 0 in 482.00 W/m2 unknown
17:29 89.6 °F 64.4 °F 29.8 in West 3.1 mph 5 mph 44% 0 in 466.00 W/m2 unknown
17:34 89.6 °F 64.4 °F 29.8 in WNW 2.5 mph 3.7 mph 42% 0 in 452.00 W/m2 unknown
17:39 89.6 °F 64.4 °F 29.8 in WSW 1.9 mph 3.7 mph 42% 0 in 438.00 W/m2 unknown
17:44 89.6 °F 64.4 °F 29.8 in WSW 3.7 mph 5 mph 43% 0 in 425.00 W/m2 unknown
17:49 89.6 °F 64.4 °F 29.8 in WSW 4.3 mph 5 mph 43% 0 in 410.00 W/m2 unknown
17:54 89.6 °F 62.6 °F 29.8 in WSW 1.2 mph 5 mph 43% 0 in 35.00 W/m2 unknown
17:59 89.6 °F 62.6 °F 29.8 in WSW 1.9 mph 3.7 mph 43% 0 in 364.00 W/m2 unknown
18:04 89.6 °F 64.4 °F 29.8 in NNW 1.9 mph 3.1 mph 44% 0 in 360.00 W/m2 unknown
18:09 87.8 °F 64.4 °F 29.8 in East 1.9 mph 2.5 mph 45% 0 in 345.00 W/m2 unknown
18:14 89.6 °F 64.4 °F 29.8 in East 3.7 mph 3.7 mph 46% 0 in 330.00 W/m2 unknown
18:19 87.8 °F 62.6 °F 29.8 in North 3.1 mph 3.7 mph 44% 0 in 318.00 W/m2 unknown
18:24 87.8 °F 64.4 °F 29.8 in ENE 1.9 mph 3.7 mph 46% 0 in 306.00 W/m2 unknown
18:29 87.8 °F 66.2 °F 29.8 in East 2.5 mph 3.7 mph 48% 0 in 288.00 W/m2 unknown
18:34 87.8 °F 66.2 °F 29.8 in East 2.5 mph 3.7 mph 49% 0 in 271.00 W/m2 unknown
18:39 87.8 °F 66.2 °F 29.8 in East 2.5 mph 3.7 mph 51% 0 in 257.00 W/m2 unknown
18:44 87.8 °F 68 °F 29.8 in ENE 2.5 mph 3.7 mph 52% 0 in 241.00 W/m2 unknown
18:49 87.8 °F 68 °F 29.8 in East 3.1 mph 5 mph 52% 0 in 229.00 W/m2 unknown
18:54 86 °F 66.2 °F 29.8 in ENE 3.7 mph 5 mph 52% 0 in 211.00 W/m2 unknown
18:59 86 °F 66.2 °F 29.8 in ENE 3.7 mph 5 mph 52% 0 in 195.00 W/m2 unknown
19:04 86 °F 68 °F 29.8 in ENE 3.1 mph 5 mph 53% 0 in 178.00 W/m2 unknown
19:09 86 °F 68 °F 29.8 in ENE 2.5 mph 3.7 mph 53% 0 in 158.00 W/m2 unknown
19:14 86 °F 66.2 °F 29.8 in NE 2.5 mph 3.7 mph 52% 0 in 139.00 W/m2 unknown
19:19 86 °F 66.2 °F 29.8 in NNE 3.1 mph 3.7 mph 52% 0 in 121.00 W/m2 unknown
19:24 86 °F 66.2 °F 29.8 in NNE 2.5 mph 3.7 mph 51% 0 in 111.00 W/m2 unknown
19:29 86 °F 66.2 °F 29.8 in NE 2.5 mph 3.7 mph 54% 0 in 91.00 W/m2 unknown
19:34 86 °F 68 °F 29.8 in NE 1.9 mph 3.7 mph 58% 0 in 76.00 W/m2 unknown
19:39 84.2 °F 69.8 °F 29.8 in NE 1.2 mph 3.1 mph 62% 0 in 62.00 W/m2 unknown
19:44 84.2 °F 69.8 °F 29.8 in Calm   1.2 mph 64% 0 in 46.00 W/m2 unknown
19:49 82.4 °F 69.8 °F 29.8 in Calm   1.2 mph 65% 0 in 16.00 W/m2 unknown
19:54 82.4 °F 69.8 °F 29.8 in Calm     66% 0 in 14.00 W/m2 unknown
19:59 82.4 °F 69.8 °F 29.8 in Calm   1.2 mph 66% 0 in 12.00 W/m2 unknown
20:04 82.4 °F 69.8 °F 29.8 in Calm   1.2 mph 67% 0 in 11.00 W/m2 unknown
20:09 80.6 °F 69.8 °F 29.8 in West 1.9 mph 3.7 mph 67% 0 in 9.00 W/m2 unknown
20:14 80.6 °F 68 °F 29.8 in WSW 1.9 mph 3.1 mph 66% 0 in 5.00 W/m2 unknown
20:19 80.6 °F 68 °F 29.8 in WSW 1.9 mph 3.1 mph 68% 0 in 0.00 W/m2 unknown
20:24 80.6 °F 69.8 °F 29.8 in WSW 1.2 mph 1.9 mph 70% 0 in 0.00 W/m2 unknown
20:29 78.8 °F 69.8 °F 29.8 in Calm   1.2 mph 72% 0 in 0.00 W/m2 unknown
20:34 78.8 °F 69.8 °F 29.8 in Calm     72% 0 in 0.00 W/m2 unknown
20:39 78.8 °F 69.8 °F 29.8 in Calm     73% 0 in 0.00 W/m2 unknown
20:44 78.8 °F 69.8 °F 29.8 in Calm     74% 0 in 0.00 W/m2 unknown
20:49 77 °F 68 °F 29.8 in Calm     73% 0 in 0.00 W/m2 unknown
20:54 77 °F 68 °F 29.8 in Calm     71% 0 in 0.00 W/m2 unknown
20:59 77 °F 68 °F 29.8 in Calm     74% 0 in 0.00 W/m2 unknown
21:04 77 °F 68 °F 29.8 in Calm     75% 0 in 0.00 W/m2 unknown
21:09 77 °F 68 °F 29.8 in Calm     75% 0 in 0.00 W/m2 unknown
21:14 77 °F 68 °F 29.8 in Calm     76% 0 in 0.00 W/m2 unknown
21:19 77 °F 68 °F 29.8 in Calm     76% 0 in 0.00 W/m2 unknown
21:24 77 °F 68 °F 29.8 in Calm     76% 0 in 0.00 W/m2 unknown
21:29 77 °F 68 °F 29.8 in Calm     76% 0 in 0.00 W/m2 unknown
21:34 75.2 °F 68 °F 29.8 in West 2.5 mph 3.1 mph 78% 0 in 0.00 W/m2 unknown
21:39 75.2 °F 68 °F 29.8 in WNW 2.5 mph 3.7 mph 79% 0 in 0.00 W/m2 unknown
21:44 75.2 °F 68 °F 29.8 in WNW 3.1 mph 3.7 mph 78% 0 in 0.00 W/m2 unknown
21:49 75.2 °F 68 °F 29.8 in WNW 1.9 mph 3.7 mph 76% 0 in 0.00 W/m2 unknown
21:54 75.2 °F 68 °F 29.8 in NW 1.9 mph 3.7 mph 77% 0 in 0.00 W/m2 unknown
21:59 75.2 °F 68 °F 29.8 in NW 1.9 mph 3.1 mph 77% 0 in 0.00 W/m2 unknown
22:04 75.2 °F 68 °F 29.8 in NNW 1.9 mph 3.7 mph 77% 0 in 0.00 W/m2 unknown
22:09 75.2 °F 68 °F 29.8 in NNW 2.5 mph 3.7 mph 77% 0 in 0.00 W/m2 unknown
22:14 75.2 °F 68 °F 29.8 in NNW 2.5 mph 3.7 mph 77% 0 in 0.00 W/m2 unknown
22:19 75.2 °F 68 °F 29.8 in NNW 1.9 mph 3.7 mph 77% 0 in 0.00 W/m2 unknown
22:24 75.2 °F 68 °F 29.8 in NNW 1.9 mph 3.7 mph 76% 0 in 0.00 W/m2 unknown
22:29 75.2 °F 68 °F 29.8 in NNW 1.9 mph 3.7 mph 77% 0 in 0.00 W/m2 unknown
22:34 75.2 °F 68 °F 29.8 in NNW 1.2 mph 3.1 mph 76% 0 in 0.00 W/m2 unknown
22:39 75.2 °F 68 °F 29.8 in NW 1.9 mph 3.7 mph 77% 0 in 0.00 W/m2 unknown
22:44 75.2 °F 68 °F 29.8 in NW 1.9 mph 3.7 mph 77% 0 in 0.00 W/m2 unknown
22:49 75.2 °F 68 °F 29.8 in Calm   3.1 mph 78% 0 in 0.00 W/m2 unknown
22:54 75.2 °F 68 °F 29.8 in NNW 0.6 mph 1.2 mph 79% 0 in 0.00 W/m2 unknown
22:59 75.2 °F 68 °F 29.8 in North 1.9 mph 2.5 mph 80% 0 in 0.00 W/m2 unknown
23:03 73.4 °F 68 °F 29.8 in North 0.6 mph 2.5 mph 81% 0 in 0.00 W/m2 unknown
23:09 73.4 °F 68 °F 29.8 in North 0.6 mph 1.9 mph 82% 0 in 0.00 W/m2 unknown
23:14 73.4 °F 68 °F 29.8 in NNE 2.5 mph 3.7 mph 82% 0 in 0.00 W/m2 unknown
23:19 73.4 °F 68 °F 29.8 in NNE 1.9 mph 3.7 mph 82% 0 in 0.00 W/m2 unknown
23:24 73.4 °F 68 °F 29.8 in NNE 1.9 mph 3.7 mph 80% 0 in 0.00 W/m2 unknown
23:29 73.4 °F 66.2 °F 29.8 in NNE 2.5 mph 3.7 mph 79% 0 in 0.00 W/m2 unknown
23:34 73.4 °F 66.2 °F 29.8 in NNE 2.5 mph 3.7 mph 79% 0 in 0.00 W/m2 unknown
23:39 73.4 °F 66.2 °F 29.8 in North 1.9 mph 3.7 mph 79% 0 in 0.00 W/m2 unknown
23:44 73.4 °F 66.2 °F 29.8 in North 1.9 mph 3.7 mph 79% 0 in 0.00 W/m2 unknown
23:49 73.4 °F 66.2 °F 29.8 in NNW 3.1 mph 5 mph 79% 0 in 0.00 W/m2 unknown
23:54 73.4 °F 66.2 °F 29.8 in North 3.1 mph 5 mph 79% 0 in 0.00 W/m2 unknown
23:59 73.4 °F 66.2 °F 29.8 in North 3.1 mph 5 mph 78% 0 in 0.00 W/m2 unknown
Stazione Meteorologica MeteoMincio Rivalta s/M (MN)
Con i complimenti di Weather Underground - 4 mb



METEO PILLOLE
Il disastro meteorologico più costoso
Bahamas, Florida e Louisiana
Nel 1992 il piccolo ma distruttivo uragano Andrew provoca danni valutati in 25 miliardi di dollari.
Share

Non seguire questo link o sarai bannato dal sito!